sensor_id;sensor_type;location;lat;lon;timestamp;pressure;altitude;pressure_sealevel;temperature;humidity
7264;BME280;3673;52.480;13.348;2024-03-23T00:52:28;100394.97;;;13.04;62.34
7264;BME280;3673;52.480;13.348;2024-03-23T00:54:55;100397.19;;;13.29;61.46
7264;BME280;3673;52.480;13.348;2024-03-23T00:57:21;100394.22;;;12.97;61.67
7264;BME280;3673;52.480;13.348;2024-03-23T00:59:48;100396.91;;;12.94;62.10
7264;BME280;3673;52.480;13.348;2024-03-23T01:02:13;100395.97;;;12.97;62.72
7264;BME280;3673;52.480;13.348;2024-03-23T01:04:40;100391.44;;;13.05;62.01
7264;BME280;3673;52.480;13.348;2024-03-23T01:07:06;100391.53;;;13.00;61.96
7264;BME280;3673;52.480;13.348;2024-03-23T01:09:34;100398.53;;;13.00;62.87
7264;BME280;3673;52.480;13.348;2024-03-23T01:12:00;100395.47;;;12.72;63.02
7264;BME280;3673;52.480;13.348;2024-03-23T01:14:27;100392.63;;;12.87;62.56
7264;BME280;3673;52.480;13.348;2024-03-23T01:16:53;100380.94;;;12.50;63.76
7264;BME280;3673;52.480;13.348;2024-03-23T01:19:19;100390.22;;;12.72;63.76
7264;BME280;3673;52.480;13.348;2024-03-23T01:21:45;100390.63;;;13.03;63.40
7264;BME280;3673;52.480;13.348;2024-03-23T01:24:12;100383.59;;;13.03;63.20
7264;BME280;3673;52.480;13.348;2024-03-23T01:26:39;100375.78;;;12.99;62.79
7264;BME280;3673;52.480;13.348;2024-03-23T01:29:06;100372.78;;;12.68;63.05
7264;BME280;3673;52.480;13.348;2024-03-23T01:31:32;100370.53;;;13.00;63.30
7264;BME280;3673;52.480;13.348;2024-03-23T01:33:58;100363.63;;;12.93;63.38
7264;BME280;3673;52.480;13.348;2024-03-23T01:36:24;100348.13;;;12.79;63.48
7264;BME280;3673;52.480;13.348;2024-03-23T01:38:51;100348.81;;;12.89;63.78
7264;BME280;3673;52.480;13.348;2024-03-23T01:41:17;100336.50;;;12.94;63.21
7264;BME280;3673;52.480;13.348;2024-03-23T01:43:45;100318.13;;;12.94;63.05
7264;BME280;3673;52.480;13.348;2024-03-23T01:46:11;100320.22;;;12.74;63.30
7264;BME280;3673;52.480;13.348;2024-03-23T01:48:38;100322.28;;;13.06;63.49
7264;BME280;3673;52.480;13.348;2024-03-23T01:51:04;100329.34;;;12.50;64.33
7264;BME280;3673;52.480;13.348;2024-03-23T01:53:31;100332.03;;;12.46;64.72
7264;BME280;3673;52.480;13.348;2024-03-23T01:55:57;100327.75;;;12.92;63.90
7264;BME280;3673;52.480;13.348;2024-03-23T01:58:24;100335.81;;;12.83;64.09
7264;BME280;3673;52.480;13.348;2024-03-23T02:00:51;100317.00;;;12.57;64.44
7264;BME280;3673;52.480;13.348;2024-03-23T02:03:25;100313.72;;;12.95;63.68
7264;BME280;3673;52.480;13.348;2024-03-23T02:05:51;100325.34;;;12.80;63.83
7264;BME280;3673;52.480;13.348;2024-03-23T02:08:21;100320.53;;;13.05;62.82
7264;BME280;3673;52.480;13.348;2024-03-23T02:10:47;100319.63;;;13.10;63.17
7264;BME280;3673;52.480;13.348;2024-03-23T02:13:15;100314.69;;;12.89;63.20
7264;BME280;3673;52.480;13.348;2024-03-23T02:15:41;100312.72;;;13.02;63.19
7264;BME280;3673;52.480;13.348;2024-03-23T02:18:09;100318.78;;;13.07;63.14
7264;BME280;3673;52.480;13.348;2024-03-23T02:20:35;100324.75;;;13.15;62.99
7264;BME280;3673;52.480;13.348;2024-03-23T02:23:03;100315.56;;;12.89;63.44
7264;BME280;3673;52.480;13.348;2024-03-23T02:25:31;100315.84;;;12.73;63.64
7264;BME280;3673;52.480;13.348;2024-03-23T02:27:58;100312.66;;;13.05;63.24
7264;BME280;3673;52.480;13.348;2024-03-23T02:30:24;100300.22;;;12.67;63.81
7264;BME280;3673;52.480;13.348;2024-03-23T02:32:51;100285.94;;;12.28;65.10
7264;BME280;3673;52.480;13.348;2024-03-23T02:35:17;100283.69;;;12.60;64.50
7264;BME280;3673;52.480;13.348;2024-03-23T02:37:46;100286.03;;;12.77;64.12
7264;BME280;3673;52.480;13.348;2024-03-23T02:40:13;100280.91;;;12.69;64.18
7264;BME280;3673;52.480;13.348;2024-03-23T02:42:40;100280.41;;;12.98;63.34
7264;BME280;3673;52.480;13.348;2024-03-23T02:45:06;100270.53;;;12.62;64.52
7264;BME280;3673;52.480;13.348;2024-03-23T02:47:33;100279.06;;;12.76;64.57
7264;BME280;3673;52.480;13.348;2024-03-23T02:49:59;100273.16;;;12.63;64.23
7264;BME280;3673;52.480;13.348;2024-03-23T02:52:26;100272.81;;;12.83;63.88
7264;BME280;3673;52.480;13.348;2024-03-23T02:54:52;100272.16;;;12.70;64.99
7264;BME280;3673;52.480;13.348;2024-03-23T02:57:20;100261.97;;;12.52;65.21
7264;BME280;3673;52.480;13.348;2024-03-23T02:59:45;100265.69;;;12.89;64.28
7264;BME280;3673;52.480;13.348;2024-03-23T03:02:13;100256.34;;;12.73;64.83
7264;BME280;3673;52.480;13.348;2024-03-23T03:04:39;100269.66;;;12.61;64.74
7264;BME280;3673;52.480;13.348;2024-03-23T03:07:06;100273.97;;;12.65;64.55
7264;BME280;3673;52.480;13.348;2024-03-23T03:09:32;100268.13;;;13.00;64.01
7264;BME280;3673;52.480;13.348;2024-03-23T03:12:01;100263.81;;;12.96;64.04
7264;BME280;3673;52.480;13.348;2024-03-23T03:14:28;100261.56;;;12.75;64.18
7264;BME280;3673;52.480;13.348;2024-03-23T03:16:55;100241.06;;;12.95;63.75
7264;BME280;3673;52.480;13.348;2024-03-23T03:19:21;100251.88;;;12.80;63.60
7264;BME280;3673;52.480;13.348;2024-03-23T03:21:47;100247.38;;;12.85;64.02
7264;BME280;3673;52.480;13.348;2024-03-23T03:24:14;100249.09;;;12.37;64.92
7264;BME280;3673;52.480;13.348;2024-03-23T03:26:40;100239.13;;;12.04;65.97
7264;BME280;3673;52.480;13.348;2024-03-23T03:29:06;100232.94;;;12.61;65.07
7264;BME280;3673;52.480;13.348;2024-03-23T03:31:34;100237.97;;;12.21;65.32
7264;BME280;3673;52.480;13.348;2024-03-23T03:34:00;100230.19;;;12.15;65.53
7264;BME280;3673;52.480;13.348;2024-03-23T03:36:28;100218.72;;;12.22;65.34
7264;BME280;3673;52.480;13.348;2024-03-23T03:38:54;100210.63;;;12.36;64.65
7264;BME280;3673;52.480;13.348;2024-03-23T03:41:20;100208.28;;;12.19;65.28
7264;BME280;3673;52.480;13.348;2024-03-23T03:43:46;100211.78;;;12.18;64.97
7264;BME280;3673;52.480;13.348;2024-03-23T03:46:13;100223.47;;;11.99;65.31
7264;BME280;3673;52.480;13.348;2024-03-23T03:48:40;100221.09;;;11.82;66.09
7264;BME280;3673;52.480;13.348;2024-03-23T03:51:07;100225.22;;;12.00;65.01
7264;BME280;3673;52.480;13.348;2024-03-23T03:53:33;100212.81;;;12.10;64.77
7264;BME280;3673;52.480;13.348;2024-03-23T03:56:01;100213.81;;;12.01;64.49
7264;BME280;3673;52.480;13.348;2024-03-23T03:58:27;100212.78;;;12.11;64.20
7264;BME280;3673;52.480;13.348;2024-03-23T04:00:54;100214.94;;;11.85;64.86
7264;BME280;3673;52.480;13.348;2024-03-23T04:03:20;100201.91;;;11.80;65.04
7264;BME280;3673;52.480;13.348;2024-03-23T04:05:51;100210.31;;;12.02;64.65
7264;BME280;3673;52.480;13.348;2024-03-23T04:08:18;100200.59;;;12.09;64.51
7264;BME280;3673;52.480;13.348;2024-03-23T04:10:44;100182.13;;;12.15;64.99
7264;BME280;3673;52.480;13.348;2024-03-23T04:13:11;100190.63;;;12.30;64.10
7264;BME280;3673;52.480;13.348;2024-03-23T04:15:38;100191.50;;;11.76;65.30
7264;BME280;3673;52.480;13.348;2024-03-23T04:18:04;100210.06;;;11.56;65.92
7264;BME280;3673;52.480;13.348;2024-03-23T04:20:31;100206.38;;;11.74;65.57
7264;BME280;3673;52.480;13.348;2024-03-23T04:22:59;100205.56;;;11.64;65.33
7264;BME280;3673;52.480;13.348;2024-03-23T04:25:26;100196.28;;;11.42;65.31
7264;BME280;3673;52.480;13.348;2024-03-23T04:27:52;100199.59;;;11.56;65.32
7264;BME280;3673;52.480;13.348;2024-03-23T04:30:18;100208.19;;;11.64;65.04
7264;BME280;3673;52.480;13.348;2024-03-23T04:32:45;100200.13;;;11.84;65.08
7264;BME280;3673;52.480;13.348;2024-03-23T04:35:11;100198.72;;;11.54;64.80
7264;BME280;3673;52.480;13.348;2024-03-23T04:37:38;100188.47;;;12.02;63.95
7264;BME280;3673;52.480;13.348;2024-03-23T04:40:09;100184.34;;;11.87;64.33
7264;BME280;3673;52.480;13.348;2024-03-23T04:42:37;100180.50;;;12.08;64.09
7264;BME280;3673;52.480;13.348;2024-03-23T04:45:05;100168.19;;;12.11;63.62
7264;BME280;3673;52.480;13.348;2024-03-23T04:47:32;100173.22;;;12.25;63.54
7264;BME280;3673;52.480;13.348;2024-03-23T04:50:01;100158.31;;;11.75;63.78
7264;BME280;3673;52.480;13.348;2024-03-23T04:52:28;100159.84;;;11.90;64.06
7264;BME280;3673;52.480;13.348;2024-03-23T04:54:55;100156.94;;;12.05;64.30
7264;BME280;3673;52.480;13.348;2024-03-23T04:57:23;100150.03;;;12.51;62.85
7264;BME280;3673;52.480;13.348;2024-03-23T04:59:50;100152.69;;;12.50;62.38
7264;BME280;3673;52.480;13.348;2024-03-23T05:02:15;100151.41;;;12.23;62.36
7264;BME280;3673;52.480;13.348;2024-03-23T05:04:42;100156.59;;;12.27;62.06
7264;BME280;3673;52.480;13.348;2024-03-23T05:07:08;100166.44;;;12.13;62.56
7264;BME280;3673;52.480;13.348;2024-03-23T05:09:35;100167.44;;;12.06;62.71
7264;BME280;3673;52.480;13.348;2024-03-23T05:12:01;100157.16;;;11.91;63.11
7264;BME280;3673;52.480;13.348;2024-03-23T05:14:29;100151.16;;;11.84;63.32
7264;BME280;3673;52.480;13.348;2024-03-23T05:16:55;100146.06;;;11.77;64.08
7264;BME280;3673;52.480;13.348;2024-03-23T05:19:22;100149.50;;;11.79;63.56
7264;BME280;3673;52.480;13.348;2024-03-23T05:21:48;100147.00;;;11.73;63.53
7264;BME280;3673;52.480;13.348;2024-03-23T05:24:14;100148.84;;;11.63;64.33
7264;BME280;3673;52.480;13.348;2024-03-23T05:26:40;100144.69;;;11.50;64.56
7264;BME280;3673;52.480;13.348;2024-03-23T05:29:07;100136.53;;;11.68;64.21
7264;BME280;3673;52.480;13.348;2024-03-23T05:31:37;100146.13;;;11.72;64.04
7264;BME280;3673;52.480;13.348;2024-03-23T05:34:04;100138.03;;;11.86;64.52
7264;BME280;3673;52.480;13.348;2024-03-23T05:36:30;100143.13;;;11.95;64.14
7264;BME280;3673;52.480;13.348;2024-03-23T05:38:58;100124.78;;;11.95;64.56
7264;BME280;3673;52.480;13.348;2024-03-23T05:41:23;100113.66;;;12.31;63.34
7264;BME280;3673;52.480;13.348;2024-03-23T05:43:50;100113.53;;;12.39;62.80
7264;BME280;3673;52.480;13.348;2024-03-23T05:46:16;100104.84;;;12.35;62.11
7264;BME280;3673;52.480;13.348;2024-03-23T05:48:44;100109.16;;;11.89;61.99
7264;BME280;3673;52.480;13.348;2024-03-23T05:51:10;100099.72;;;11.80;62.04
7264;BME280;3673;52.480;13.348;2024-03-23T05:53:38;100091.84;;;11.80;62.42
7264;BME280;3673;52.480;13.348;2024-03-23T05:56:04;100088.25;;;11.84;62.25
7264;BME280;3673;52.480;13.348;2024-03-23T05:58:32;100086.75;;;11.68;62.72
7264;BME280;3673;52.480;13.348;2024-03-23T06:00:59;100088.88;;;12.00;62.93
7264;BME280;3673;52.480;13.348;2024-03-23T06:03:26;100084.69;;;11.90;63.05
7264;BME280;3673;52.480;13.348;2024-03-23T06:05:54;100073.22;;;11.97;62.84
7264;BME280;3673;52.480;13.348;2024-03-23T06:08:21;100070.53;;;12.00;63.82
7264;BME280;3673;52.480;13.348;2024-03-23T06:10:46;100074.63;;;11.63;63.08
7264;BME280;3673;52.480;13.348;2024-03-23T06:13:13;100067.53;;;11.71;63.35
7264;BME280;3673;52.480;13.348;2024-03-23T06:15:39;100059.25;;;11.97;63.42
7264;BME280;3673;52.480;13.348;2024-03-23T06:18:06;100051.28;;;12.01;62.56
7264;BME280;3673;52.480;13.348;2024-03-23T06:20:33;100056.47;;;12.04;62.90
7264;BME280;3673;52.480;13.348;2024-03-23T06:23:02;100049.19;;;12.20;62.11
7264;BME280;3673;52.480;13.348;2024-03-23T06:25:29;100051.69;;;12.26;61.02
7264;BME280;3673;52.480;13.348;2024-03-23T06:27:56;100049.63;;;12.42;60.74
7264;BME280;3673;52.480;13.348;2024-03-23T06:30:21;100057.16;;;12.60;60.09
7264;BME280;3673;52.480;13.348;2024-03-23T06:32:48;100051.53;;;12.35;60.64
7264;BME280;3673;52.480;13.348;2024-03-23T06:35:14;100056.34;;;12.56;59.18
7264;BME280;3673;52.480;13.348;2024-03-23T06:37:41;100053.78;;;12.53;58.71
7264;BME280;3673;52.480;13.348;2024-03-23T06:40:09;100050.09;;;12.63;59.31
7264;BME280;3673;52.480;13.348;2024-03-23T06:42:36;100037.72;;;12.70;58.67
7264;BME280;3673;52.480;13.348;2024-03-23T06:45:03;100036.16;;;12.60;58.16
7264;BME280;3673;52.480;13.348;2024-03-23T06:47:30;100033.41;;;12.67;58.27
7264;BME280;3673;52.480;13.348;2024-03-23T06:49:56;100032.16;;;12.42;58.87
7264;BME280;3673;52.480;13.348;2024-03-23T06:52:22;100029.97;;;12.64;58.42
7264;BME280;3673;52.480;13.348;2024-03-23T06:54:48;100029.16;;;12.60;58.08
7264;BME280;3673;52.480;13.348;2024-03-23T06:57:16;100028.91;;;12.72;57.85
7264;BME280;3673;52.480;13.348;2024-03-23T06:59:42;100027.44;;;12.59;58.62
7264;BME280;3673;52.480;13.348;2024-03-23T07:02:09;100018.84;;;12.51;59.12
7264;BME280;3673;52.480;13.348;2024-03-23T07:04:35;100016.13;;;12.56;59.16
7264;BME280;3673;52.480;13.348;2024-03-23T07:07:02;100018.09;;;12.45;59.61
7264;BME280;3673;52.480;13.348;2024-03-23T07:09:29;100017.41;;;12.35;59.35
7264;BME280;3673;52.480;13.348;2024-03-23T07:11:56;100017.66;;;12.66;58.41
7264;BME280;3673;52.480;13.348;2024-03-23T07:14:24;100020.75;;;12.84;57.80
7264;BME280;3673;52.480;13.348;2024-03-23T07:16:51;100022.72;;;12.75;59.04
7264;BME280;3673;52.480;13.348;2024-03-23T07:19:17;100021.84;;;12.74;58.53
7264;BME280;3673;52.480;13.348;2024-03-23T07:21:45;100024.16;;;12.48;58.06
7264;BME280;3673;52.480;13.348;2024-03-23T07:24:11;100013.94;;;12.34;58.28
7264;BME280;3673;52.480;13.348;2024-03-23T07:26:38;100004.56;;;12.21;58.29
7264;BME280;3673;52.480;13.348;2024-03-23T07:29:04;100004.81;;;12.09;58.76
7264;BME280;3673;52.480;13.348;2024-03-23T07:31:32;100011.34;;;12.76;57.88
7264;BME280;3673;52.480;13.348;2024-03-23T07:33:58;100011.59;;;12.64;57.51
7264;BME280;3673;52.480;13.348;2024-03-23T07:36:25;100012.19;;;12.76;57.80
7264;BME280;3673;52.480;13.348;2024-03-23T07:38:51;100016.06;;;12.59;58.34
7264;BME280;3673;52.480;13.348;2024-03-23T07:41:20;100006.41;;;12.61;58.73
7264;BME280;3673;52.480;13.348;2024-03-23T07:43:47;100006.59;;;12.52;59.63
7264;BME280;3673;52.480;13.348;2024-03-23T07:46:15;100001.00;;;12.68;57.52
7264;BME280;3673;52.480;13.348;2024-03-23T07:48:43;100003.34;;;12.39;57.33
7264;BME280;3673;52.480;13.348;2024-03-23T07:51:17;99998.13;;;12.39;57.32
7264;BME280;3673;52.480;13.348;2024-03-23T07:53:44;99991.78;;;12.51;56.42
7264;BME280;3673;52.480;13.348;2024-03-23T07:56:11;99995.34;;;12.45;56.62
7264;BME280;3673;52.480;13.348;2024-03-23T07:58:38;99996.97;;;12.52;56.85
7264;BME280;3673;52.480;13.348;2024-03-23T08:01:07;99993.03;;;12.73;56.15
7264;BME280;3673;52.480;13.348;2024-03-23T08:03:34;100000.53;;;12.48;57.02
7264;BME280;3673;52.480;13.348;2024-03-23T08:06:09;99988.16;;;12.13;57.37
7264;BME280;3673;52.480;13.348;2024-03-23T08:08:35;99988.56;;;12.35;58.15
7264;BME280;3673;52.480;13.348;2024-03-23T08:11:02;99977.28;;;12.31;57.63
7264;BME280;3673;52.480;13.348;2024-03-23T08:13:29;99984.00;;;12.45;58.76
7264;BME280;3673;52.480;13.348;2024-03-23T08:15:57;99978.94;;;12.37;58.05
7264;BME280;3673;52.480;13.348;2024-03-23T08:18:23;99976.47;;;12.28;59.45
7264;BME280;3673;52.480;13.348;2024-03-23T08:20:56;99972.91;;;12.32;59.03
7264;BME280;3673;52.480;13.348;2024-03-23T08:23:24;99971.00;;;11.97;59.11
7264;BME280;3673;52.480;13.348;2024-03-23T08:25:51;99964.31;;;11.79;59.02
7264;BME280;3673;52.480;13.348;2024-03-23T08:28:17;99970.06;;;11.98;58.33
7264;BME280;3673;52.480;13.348;2024-03-23T08:30:44;99958.28;;;12.20;58.52
7264;BME280;3673;52.480;13.348;2024-03-23T08:33:09;99972.56;;;12.06;58.78
7264;BME280;3673;52.480;13.348;2024-03-23T08:35:36;99971.06;;;11.91;58.74
7264;BME280;3673;52.480;13.348;2024-03-23T08:38:03;99967.94;;;11.74;58.56
7264;BME280;3673;52.480;13.348;2024-03-23T08:40:31;99964.69;;;12.06;58.62
7264;BME280;3673;52.480;13.348;2024-03-23T08:42:57;99962.69;;;11.72;59.29
7264;BME280;3673;52.480;13.348;2024-03-23T08:45:24;99971.78;;;12.01;59.13
7264;BME280;3673;52.480;13.348;2024-03-23T08:47:50;99974.28;;;12.07;59.02
7264;BME280;3673;52.480;13.348;2024-03-23T08:50:17;99977.22;;;11.90;59.23
7264;BME280;3673;52.480;13.348;2024-03-23T08:52:44;99978.28;;;11.80;58.77
7264;BME280;3673;52.480;13.348;2024-03-23T08:55:11;99975.63;;;11.81;59.01
7264;BME280;3673;52.480;13.348;2024-03-23T08:57:38;99967.81;;;11.78;58.99
7264;BME280;3673;52.480;13.348;2024-03-23T09:00:06;99967.88;;;11.75;58.16
7264;BME280;3673;52.480;13.348;2024-03-23T09:02:34;99969.75;;;11.70;58.37
7264;BME280;3673;52.480;13.348;2024-03-23T09:05:01;99979.78;;;11.44;58.59
7264;BME280;3673;52.480;13.348;2024-03-23T09:07:30;99975.94;;;11.62;57.89
7264;BME280;3673;52.480;13.348;2024-03-23T09:09:57;99982.78;;;11.20;58.45
7264;BME280;3673;52.480;13.348;2024-03-23T09:12:23;99984.47;;;11.22;59.51
7264;BME280;3673;52.480;13.348;2024-03-23T09:14:51;99987.97;;;11.23;58.25
7264;BME280;3673;52.480;13.348;2024-03-23T09:17:19;99983.38;;;10.77;58.50
7264;BME280;3673;52.480;13.348;2024-03-23T09:19:45;99994.94;;;10.63;59.04
7264;BME280;3673;52.480;13.348;2024-03-23T09:22:11;99996.03;;;11.09;58.74
7264;BME280;3673;52.480;13.348;2024-03-23T09:24:39;99983.59;;;11.23;58.38
7264;BME280;3673;52.480;13.348;2024-03-23T09:27:05;99993.25;;;11.20;57.29
7264;BME280;3673;52.480;13.348;2024-03-23T09:29:32;100001.16;;;11.17;57.41
7264;BME280;3673;52.480;13.348;2024-03-23T09:31:59;99984.22;;;11.37;56.42
7264;BME280;3673;52.480;13.348;2024-03-23T09:34:25;100003.03;;;11.07;56.52
7264;BME280;3673;52.480;13.348;2024-03-23T09:36:52;99996.69;;;11.22;56.30
7264;BME280;3673;52.480;13.348;2024-03-23T09:39:19;100002.03;;;11.14;57.41
7264;BME280;3673;52.480;13.348;2024-03-23T09:41:45;100007.56;;;10.96;57.42
7264;BME280;3673;52.480;13.348;2024-03-23T09:44:11;100022.03;;;11.20;56.87
7264;BME280;3673;52.480;13.348;2024-03-23T09:46:38;100010.03;;;11.07;56.74
7264;BME280;3673;52.480;13.348;2024-03-23T09:49:07;100010.34;;;11.42;57.62
7264;BME280;3673;52.480;13.348;2024-03-23T09:51:36;100022.25;;;11.05;56.72
7264;BME280;3673;52.480;13.348;2024-03-23T09:54:03;100017.69;;;10.56;58.04
7264;BME280;3673;52.480;13.348;2024-03-23T09:56:29;100027.28;;;10.54;57.80
7264;BME280;3673;52.480;13.348;2024-03-23T09:59:01;100041.19;;;10.59;57.93
7264;BME280;3673;52.480;13.348;2024-03-23T10:01:29;100043.75;;;10.64;58.37
7264;BME280;3673;52.480;13.348;2024-03-23T10:03:56;100052.00;;;10.29;58.17
7264;BME280;3673;52.480;13.348;2024-03-23T10:06:24;100048.25;;;10.53;57.89
7264;BME280;3673;52.480;13.348;2024-03-23T10:08:52;100070.66;;;10.72;57.01
7264;BME280;3673;52.480;13.348;2024-03-23T10:11:19;100070.94;;;10.48;57.47
7264;BME280;3673;52.480;13.348;2024-03-23T10:13:46;100073.38;;;10.64;57.83
7264;BME280;3673;52.480;13.348;2024-03-23T10:16:20;100081.41;;;10.49;57.36
7264;BME280;3673;52.480;13.348;2024-03-23T10:18:47;100082.16;;;10.60;56.54
7264;BME280;3673;52.480;13.348;2024-03-23T10:21:15;100079.22;;;10.05;57.85
7264;BME280;3673;52.480;13.348;2024-03-23T10:23:44;100076.53;;;10.13;58.22
7264;BME280;3673;52.480;13.348;2024-03-23T10:26:18;100085.13;;;10.28;58.57
7264;BME280;3673;52.480;13.348;2024-03-23T10:28:57;100087.00;;;10.13;58.07
7264;BME280;3673;52.480;13.348;2024-03-23T10:31:26;100094.38;;;9.65;60.19
7264;BME280;3673;52.480;13.348;2024-03-23T10:33:53;100080.16;;;10.00;59.54
7264;BME280;3673;52.480;13.348;2024-03-23T10:36:20;100095.16;;;9.75;60.25
7264;BME280;3673;52.480;13.348;2024-03-23T10:38:51;100094.28;;;9.74;60.44
7264;BME280;3673;52.480;13.348;2024-03-23T10:41:17;100096.06;;;9.74;61.11
7264;BME280;3673;52.480;13.348;2024-03-23T10:43:46;100103.88;;;9.71;61.43
7264;BME280;3673;52.480;13.348;2024-03-23T10:46:12;100096.81;;;9.87;61.80
7264;BME280;3673;52.480;13.348;2024-03-23T10:48:39;100107.31;;;9.80;61.16
7264;BME280;3673;52.480;13.348;2024-03-23T10:51:06;100100.34;;;9.78;61.48
7264;BME280;3673;52.480;13.348;2024-03-23T10:53:34;100090.66;;;9.92;61.37
7264;BME280;3673;52.480;13.348;2024-03-23T10:56:02;100093.09;;;10.16;61.27
7264;BME280;3673;52.480;13.348;2024-03-23T10:58:32;100087.94;;;10.07;60.74
7264;BME280;3673;52.480;13.348;2024-03-23T11:00:58;100108.88;;;10.01;60.11
7264;BME280;3673;52.480;13.348;2024-03-23T11:03:33;100095.34;;;9.48;61.03
7264;BME280;3673;52.480;13.348;2024-03-23T11:06:00;100104.03;;;9.57;60.13
7264;BME280;3673;52.480;13.348;2024-03-23T11:08:33;100102.91;;;9.86;59.13
7264;BME280;3673;52.480;13.348;2024-03-23T11:11:19;100096.34;;;10.40;58.02
7264;BME280;3673;52.480;13.348;2024-03-23T11:13:48;100096.28;;;10.44;59.16
7264;BME280;3673;52.480;13.348;2024-03-23T11:16:15;100100.44;;;10.62;58.80
7264;BME280;3673;52.480;13.348;2024-03-23T11:18:43;100098.50;;;10.79;57.90
7264;BME280;3673;52.480;13.348;2024-03-23T11:21:09;100089.28;;;10.46;56.99
7264;BME280;3673;52.480;13.348;2024-03-23T11:23:36;100092.31;;;10.84;57.01
7264;BME280;3673;52.480;13.348;2024-03-23T11:26:02;100100.72;;;11.08;56.75
7264;BME280;3673;52.480;13.348;2024-03-23T11:28:30;100102.09;;;10.70;56.48
7264;BME280;3673;52.480;13.348;2024-03-23T11:30:56;100094.56;;;11.12;56.21
7264;BME280;3673;52.480;13.348;2024-03-23T11:33:23;100112.03;;;11.11;56.66
7264;BME280;3673;52.480;13.348;2024-03-23T11:35:49;100107.69;;;11.10;55.42
7264;BME280;3673;52.480;13.348;2024-03-23T11:38:18;100106.88;;;11.07;55.54
7264;BME280;3673;52.480;13.348;2024-03-23T11:40:46;100109.19;;;11.29;54.85
7264;BME280;3673;52.480;13.348;2024-03-23T11:43:14;100114.63;;;11.75;53.46
7264;BME280;3673;52.480;13.348;2024-03-23T11:45:45;100109.38;;;11.75;54.51
7264;BME280;3673;52.480;13.348;2024-03-23T11:48:14;100111.31;;;11.63;55.51
7264;BME280;3673;52.480;13.348;2024-03-23T11:50:43;100106.81;;;11.72;54.71
7264;BME280;3673;52.480;13.348;2024-03-23T11:53:21;100123.41;;;11.70;55.83
7264;BME280;3673;52.480;13.348;2024-03-23T11:55:49;100124.94;;;11.84;53.69
7264;BME280;3673;52.480;13.348;2024-03-23T11:58:18;100127.28;;;12.03;54.04
7264;BME280;3673;52.480;13.348;2024-03-23T12:00:52;100131.16;;;11.79;54.90
7264;BME280;3673;52.480;13.348;2024-03-23T12:03:20;100129.53;;;11.72;55.21
7264;BME280;3673;52.480;13.348;2024-03-23T12:05:49;100138.00;;;11.87;55.62
7264;BME280;3673;52.480;13.348;2024-03-23T12:08:21;100129.69;;;11.58;55.66
7264;BME280;3673;52.480;13.348;2024-03-23T12:10:50;100146.13;;;11.05;56.93
7264;BME280;3673;52.480;13.348;2024-03-23T12:13:21;100125.28;;;11.01;56.91
7264;BME280;3673;52.480;13.348;2024-03-23T12:15:50;100121.72;;;11.06;56.34
7264;BME280;3673;52.480;13.348;2024-03-23T12:18:18;100108.34;;;11.26;57.99
7264;BME280;3673;52.480;13.348;2024-03-23T12:20:49;100116.59;;;11.60;56.82
7264;BME280;3673;52.480;13.348;2024-03-23T12:23:16;100120.75;;;11.13;57.48
7264;BME280;3673;52.480;13.348;2024-03-23T12:25:42;100118.59;;;10.77;58.99
7264;BME280;3673;52.480;13.348;2024-03-23T12:28:08;100116.53;;;11.02;58.47
7264;BME280;3673;52.480;13.348;2024-03-23T12:30:35;100111.28;;;11.02;59.05
7264;BME280;3673;52.480;13.348;2024-03-23T12:33:04;100117.84;;;11.31;57.59
7264;BME280;3673;52.480;13.348;2024-03-23T12:35:31;100114.63;;;11.77;57.38
7264;BME280;3673;52.480;13.348;2024-03-23T12:37:58;100122.25;;;11.89;57.15
7264;BME280;3673;52.480;13.348;2024-03-23T12:40:24;100115.22;;;10.64;57.04
7264;BME280;3673;52.480;13.348;2024-03-23T12:42:52;100116.34;;;10.44;57.24
7264;BME280;3673;52.480;13.348;2024-03-23T12:45:18;100114.91;;;10.08;56.01
7264;BME280;3673;52.480;13.348;2024-03-23T12:47:45;100110.50;;;10.13;56.68
7264;BME280;3673;52.480;13.348;2024-03-23T12:50:12;100109.53;;;10.24;57.57
7264;BME280;3673;52.480;13.348;2024-03-23T12:52:39;100099.75;;;10.46;56.73
7264;BME280;3673;52.480;13.348;2024-03-23T12:55:05;100105.31;;;10.94;56.23
7264;BME280;3673;52.480;13.348;2024-03-23T12:57:32;100101.41;;;11.23;56.70
7264;BME280;3673;52.480;13.348;2024-03-23T12:59:59;100098.47;;;12.01;56.45
7264;BME280;3673;52.480;13.348;2024-03-23T13:02:26;100097.38;;;11.59;57.31
7264;BME280;3673;52.480;13.348;2024-03-23T13:04:52;100096.00;;;11.94;56.96
7264;BME280;3673;52.480;13.348;2024-03-23T13:07:22;100104.03;;;12.32;56.23
7264;BME280;3673;52.480;13.348;2024-03-23T13:09:50;100099.81;;;12.71;56.08
7264;BME280;3673;52.480;13.348;2024-03-23T13:12:17;100091.63;;;12.84;55.03
7264;BME280;3673;52.480;13.348;2024-03-23T13:14:44;100098.97;;;12.69;55.49
7264;BME280;3673;52.480;13.348;2024-03-23T13:17:11;100102.03;;;12.89;55.11
7264;BME280;3673;52.480;13.348;2024-03-23T13:19:37;100098.28;;;13.44;53.71
7264;BME280;3673;52.480;13.348;2024-03-23T13:22:04;100089.13;;;15.21;49.39
7264;BME280;3673;52.480;13.348;2024-03-23T13:24:32;100087.38;;;17.03;45.04
7264;BME280;3673;52.480;13.348;2024-03-23T13:26:59;100089.22;;;17.45;42.53
7264;BME280;3673;52.480;13.348;2024-03-23T13:29:25;100075.91;;;17.92;42.15
7264;BME280;3673;52.480;13.348;2024-03-23T13:31:52;100072.41;;;18.32;40.83
7264;BME280;3673;52.480;13.348;2024-03-23T13:34:18;100079.84;;;16.92;40.54
7264;BME280;3673;52.480;13.348;2024-03-23T13:36:46;100074.22;;;17.46;41.22
7264;BME280;3673;52.480;13.348;2024-03-23T13:39:13;100074.97;;;17.28;41.78
7264;BME280;3673;52.480;13.348;2024-03-23T13:41:43;100062.19;;;18.65;38.66
7264;BME280;3673;52.480;13.348;2024-03-23T13:44:10;100069.13;;;18.27;39.83
7264;BME280;3673;52.480;13.348;2024-03-23T13:46:38;100062.38;;;18.20;39.33
7264;BME280;3673;52.480;13.348;2024-03-23T13:49:04;100072.75;;;16.94;41.45
7264;BME280;3673;52.480;13.348;2024-03-23T13:51:31;100059.28;;;17.88;40.16
7264;BME280;3673;52.480;13.348;2024-03-23T13:54:00;100066.78;;;17.99;39.53